sensor_id;sensor_type;location;lat;lon;timestamp;temperature;humidity
13898;DHT22;7019;50.766;4.474;2022-08-01T00:01:12;20.10;99.90
13898;DHT22;7019;50.766;4.474;2022-08-01T00:03:41;20.10;99.90
13898;DHT22;7019;50.766;4.474;2022-08-01T00:06:08;20.10;99.90
13898;DHT22;7019;50.766;4.474;2022-08-01T00:08:35;20.10;99.90
13898;DHT22;7019;50.766;4.474;2022-08-01T00:11:03;20.10;99.90
13898;DHT22;7019;50.766;4.474;2022-08-01T00:13:30;20.10;99.90
13898;DHT22;7019;50.766;4.474;2022-08-01T00:15:57;20.10;99.90
13898;DHT22;7019;50.766;4.474;2022-08-01T00:18:24;20.10;99.90
13898;DHT22;7019;50.766;4.474;2022-08-01T00:20:53;20.10;99.90
13898;DHT22;7019;50.766;4.474;2022-08-01T00:23:20;20.10;99.90
13898;DHT22;7019;50.766;4.474;2022-08-01T00:25:47;20.10;99.90
13898;DHT22;7019;50.766;4.474;2022-08-01T00:28:14;20.00;99.90
13898;DHT22;7019;50.766;4.474;2022-08-01T00:30:41;20.00;99.90
13898;DHT22;7019;50.766;4.474;2022-08-01T00:33:08;20.00;99.90
13898;DHT22;7019;50.766;4.474;2022-08-01T00:35:35;20.00;99.90
13898;DHT22;7019;50.766;4.474;2022-08-01T00:38:04;20.00;99.90
13898;DHT22;7019;50.766;4.474;2022-08-01T00:40:31;20.00;99.90
13898;DHT22;7019;50.766;4.474;2022-08-01T00:42:58;20.00;99.90
13898;DHT22;7019;50.766;4.474;2022-08-01T00:45:25;20.00;99.90
13898;DHT22;7019;50.766;4.474;2022-08-01T00:47:52;20.00;99.90
13898;DHT22;7019;50.766;4.474;2022-08-01T00:50:19;20.00;99.90
13898;DHT22;7019;50.766;4.474;2022-08-01T00:52:46;20.00;99.90
13898;DHT22;7019;50.766;4.474;2022-08-01T00:55:17;20.00;99.90
13898;DHT22;7019;50.766;4.474;2022-08-01T00:57:45;20.00;99.90
13898;DHT22;7019;50.766;4.474;2022-08-01T01:00:13;20.00;99.90
13898;DHT22;7019;50.766;4.474;2022-08-01T01:02:40;20.00;99.90
13898;DHT22;7019;50.766;4.474;2022-08-01T01:05:08;20.00;99.90
13898;DHT22;7019;50.766;4.474;2022-08-01T01:07:42;19.90;99.90
13898;DHT22;7019;50.766;4.474;2022-08-01T01:10:17;19.90;99.90
13898;DHT22;7019;50.766;4.474;2022-08-01T01:12:51;19.90;99.90
13898;DHT22;7019;50.766;4.474;2022-08-01T01:15:23;19.90;99.90
13898;DHT22;7019;50.766;4.474;2022-08-01T01:17:57;19.90;99.90
13898;DHT22;7019;50.766;4.474;2022-08-01T01:20:28;19.90;99.90
13898;DHT22;7019;50.766;4.474;2022-08-01T01:23:16;19.90;99.90
13898;DHT22;7019;50.766;4.474;2022-08-01T01:26:01;19.90;99.90
13898;DHT22;7019;50.766;4.474;2022-08-01T01:28:40;19.90;99.90
13898;DHT22;7019;50.766;4.474;2022-08-01T01:31:12;19.90;99.90
13898;DHT22;7019;50.766;4.474;2022-08-01T01:33:40;19.90;99.90
13898;DHT22;7019;50.766;4.474;2022-08-01T01:36:09;19.80;99.90
13898;DHT22;7019;50.766;4.474;2022-08-01T01:38:42;19.80;99.90
13898;DHT22;7019;50.766;4.474;2022-08-01T01:41:11;19.80;99.90
13898;DHT22;7019;50.766;4.474;2022-08-01T01:43:39;19.80;99.90
13898;DHT22;7019;50.766;4.474;2022-08-01T01:46:07;19.80;99.90
13898;DHT22;7019;50.766;4.474;2022-08-01T01:48:38;19.80;99.90
13898;DHT22;7019;50.766;4.474;2022-08-01T01:51:07;19.80;99.90
13898;DHT22;7019;50.766;4.474;2022-08-01T01:53:35;19.80;99.90
13898;DHT22;7019;50.766;4.474;2022-08-01T01:56:03;19.90;99.90
13898;DHT22;7019;50.766;4.474;2022-08-01T01:58:32;19.80;99.90
13898;DHT22;7019;50.766;4.474;2022-08-01T02:01:01;19.80;99.90
13898;DHT22;7019;50.766;4.474;2022-08-01T02:03:30;19.80;99.90
13898;DHT22;7019;50.766;4.474;2022-08-01T02:05:59;19.80;99.90
13898;DHT22;7019;50.766;4.474;2022-08-01T02:08:29;19.80;99.90
13898;DHT22;7019;50.766;4.474;2022-08-01T02:10:57;19.80;99.90
13898;DHT22;7019;50.766;4.474;2022-08-01T02:13:43;19.80;99.90
13898;DHT22;7019;50.766;4.474;2022-08-01T02:16:11;19.80;99.90
13898;DHT22;7019;50.766;4.474;2022-08-01T02:18:39;19.80;99.90
13898;DHT22;7019;50.766;4.474;2022-08-01T02:21:12;19.80;99.90
13898;DHT22;7019;50.766;4.474;2022-08-01T02:23:40;19.80;99.90
13898;DHT22;7019;50.766;4.474;2022-08-01T02:26:13;19.80;99.90
13898;DHT22;7019;50.766;4.474;2022-08-01T02:28:45;19.70;99.90
13898;DHT22;7019;50.766;4.474;2022-08-01T02:31:17;19.70;99.90
13898;DHT22;7019;50.766;4.474;2022-08-01T02:33:50;19.70;99.90
13898;DHT22;7019;50.766;4.474;2022-08-01T02:36:20;19.70;99.90
13898;DHT22;7019;50.766;4.474;2022-08-01T02:38:48;19.70;99.90
13898;DHT22;7019;50.766;4.474;2022-08-01T02:41:19;19.70;99.90
13898;DHT22;7019;50.766;4.474;2022-08-01T02:43:52;19.80;99.90
13898;DHT22;7019;50.766;4.474;2022-08-01T02:46:25;19.80;99.90
13898;DHT22;7019;50.766;4.474;2022-08-01T02:48:53;19.80;99.90
13898;DHT22;7019;50.766;4.474;2022-08-01T02:51:25;19.70;99.90
13898;DHT22;7019;50.766;4.474;2022-08-01T02:53:53;19.80;99.90
13898;DHT22;7019;50.766;4.474;2022-08-01T02:56:22;19.70;99.90
13898;DHT22;7019;50.766;4.474;2022-08-01T02:59:04;19.70;99.90
13898;DHT22;7019;50.766;4.474;2022-08-01T03:01:34;19.60;99.90
13898;DHT22;7019;50.766;4.474;2022-08-01T03:04:03;19.60;99.90
13898;DHT22;7019;50.766;4.474;2022-08-01T03:06:32;19.60;99.90
13898;DHT22;7019;50.766;4.474;2022-08-01T03:09:02;19.60;99.90
13898;DHT22;7019;50.766;4.474;2022-08-01T03:11:30;19.60;99.90
13898;DHT22;7019;50.766;4.474;2022-08-01T03:14:00;19.60;99.90
13898;DHT22;7019;50.766;4.474;2022-08-01T03:16:28;19.60;99.90
13898;DHT22;7019;50.766;4.474;2022-08-01T03:18:57;19.50;99.90
13898;DHT22;7019;50.766;4.474;2022-08-01T03:21:26;19.50;99.90
13898;DHT22;7019;50.766;4.474;2022-08-01T03:23:58;19.50;99.90
13898;DHT22;7019;50.766;4.474;2022-08-01T03:26:28;19.50;99.90
13898;DHT22;7019;50.766;4.474;2022-08-01T03:28:59;19.50;99.90
13898;DHT22;7019;50.766;4.474;2022-08-01T03:31:29;19.50;99.90
13898;DHT22;7019;50.766;4.474;2022-08-01T03:33:57;19.50;99.90
13898;DHT22;7019;50.766;4.474;2022-08-01T03:36:26;19.50;99.90
13898;DHT22;7019;50.766;4.474;2022-08-01T03:39:01;19.50;99.90
13898;DHT22;7019;50.766;4.474;2022-08-01T03:41:33;19.50;99.90
13898;DHT22;7019;50.766;4.474;2022-08-01T03:44:07;19.50;99.90
13898;DHT22;7019;50.766;4.474;2022-08-01T03:46:42;19.40;99.90
13898;DHT22;7019;50.766;4.474;2022-08-01T03:49:13;19.40;99.90
13898;DHT22;7019;50.766;4.474;2022-08-01T03:51:41;19.40;99.90
13898;DHT22;7019;50.766;4.474;2022-08-01T03:54:13;19.30;99.90
13898;DHT22;7019;50.766;4.474;2022-08-01T03:56:41;19.40;99.90
13898;DHT22;7019;50.766;4.474;2022-08-01T03:59:09;19.40;99.90
13898;DHT22;7019;50.766;4.474;2022-08-01T04:01:37;19.30;99.90
13898;DHT22;7019;50.766;4.474;2022-08-01T04:04:05;19.30;99.90
13898;DHT22;7019;50.766;4.474;2022-08-01T04:06:32;19.20;99.90
13898;DHT22;7019;50.766;4.474;2022-08-01T04:08:59;19.20;99.90
13898;DHT22;7019;50.766;4.474;2022-08-01T04:11:28;19.20;99.90
13898;DHT22;7019;50.766;4.474;2022-08-01T04:13:55;19.20;99.90
13898;DHT22;7019;50.766;4.474;2022-08-01T04:16:23;19.20;99.90
13898;DHT22;7019;50.766;4.474;2022-08-01T04:18:50;19.20;99.90
13898;DHT22;7019;50.766;4.474;2022-08-01T04:21:20;19.20;99.90
13898;DHT22;7019;50.766;4.474;2022-08-01T04:23:49;19.10;99.90
13898;DHT22;7019;50.766;4.474;2022-08-01T04:26:18;19.10;99.90
13898;DHT22;7019;50.766;4.474;2022-08-01T04:28:48;19.10;99.90
13898;DHT22;7019;50.766;4.474;2022-08-01T04:31:17;19.20;99.90
13898;DHT22;7019;50.766;4.474;2022-08-01T04:33:51;19.20;99.90
13898;DHT22;7019;50.766;4.474;2022-08-01T04:36:22;19.20;99.90
13898;DHT22;7019;50.766;4.474;2022-08-01T04:38:54;19.20;99.90
13898;DHT22;7019;50.766;4.474;2022-08-01T04:41:23;19.20;99.90
13898;DHT22;7019;50.766;4.474;2022-08-01T04:43:52;19.20;99.90
13898;DHT22;7019;50.766;4.474;2022-08-01T04:46:20;19.20;99.90
13898;DHT22;7019;50.766;4.474;2022-08-01T04:48:49;19.20;99.90
13898;DHT22;7019;50.766;4.474;2022-08-01T04:51:17;19.10;99.90
13898;DHT22;7019;50.766;4.474;2022-08-01T04:53:48;19.20;99.90
13898;DHT22;7019;50.766;4.474;2022-08-01T04:56:16;19.20;99.90
13898;DHT22;7019;50.766;4.474;2022-08-01T04:58:43;19.20;99.90
13898;DHT22;7019;50.766;4.474;2022-08-01T05:01:12;19.20;99.90
13898;DHT22;7019;50.766;4.474;2022-08-01T05:03:39;19.10;99.90
13898;DHT22;7019;50.766;4.474;2022-08-01T05:06:06;19.20;99.90
13898;DHT22;7019;50.766;4.474;2022-08-01T05:08:33;19.20;99.90
13898;DHT22;7019;50.766;4.474;2022-08-01T05:11:01;19.10;99.90
13898;DHT22;7019;50.766;4.474;2022-08-01T05:13:28;19.10;99.90
13898;DHT22;7019;50.766;4.474;2022-08-01T05:15:56;19.10;99.90
13898;DHT22;7019;50.766;4.474;2022-08-01T05:18:24;19.10;99.90
13898;DHT22;7019;50.766;4.474;2022-08-01T05:20:52;19.10;99.90
13898;DHT22;7019;50.766;4.474;2022-08-01T05:23:19;19.10;99.90
13898;DHT22;7019;50.766;4.474;2022-08-01T05:25:46;19.10;99.90
13898;DHT22;7019;50.766;4.474;2022-08-01T05:28:15;19.00;99.90
13898;DHT22;7019;50.766;4.474;2022-08-01T05:30:42;19.10;99.90
13898;DHT22;7019;50.766;4.474;2022-08-01T05:33:09;19.00;99.90
13898;DHT22;7019;50.766;4.474;2022-08-01T05:35:37;19.10;99.90
13898;DHT22;7019;50.766;4.474;2022-08-01T05:38:04;19.20;99.90
13898;DHT22;7019;50.766;4.474;2022-08-01T05:40:31;19.20;99.90
13898;DHT22;7019;50.766;4.474;2022-08-01T05:42:59;19.20;99.90
13898;DHT22;7019;50.766;4.474;2022-08-01T05:45:26;19.20;99.90
13898;DHT22;7019;50.766;4.474;2022-08-01T05:47:53;19.10;99.90
13898;DHT22;7019;50.766;4.474;2022-08-01T05:50:20;19.10;99.90
13898;DHT22;7019;50.766;4.474;2022-08-01T05:52:48;19.10;99.90
13898;DHT22;7019;50.766;4.474;2022-08-01T05:55:15;19.10;99.90
13898;DHT22;7019;50.766;4.474;2022-08-01T05:57:42;19.10;99.90
13898;DHT22;7019;50.766;4.474;2022-08-01T06:00:10;19.10;99.90
13898;DHT22;7019;50.766;4.474;2022-08-01T06:02:40;19.20;99.90
13898;DHT22;7019;50.766;4.474;2022-08-01T06:05:09;19.10;99.90
13898;DHT22;7019;50.766;4.474;2022-08-01T06:07:36;19.10;99.90
13898;DHT22;7019;50.766;4.474;2022-08-01T06:10:08;19.20;99.90
13898;DHT22;7019;50.766;4.474;2022-08-01T06:12:35;19.20;99.90
13898;DHT22;7019;50.766;4.474;2022-08-01T06:15:03;19.30;99.90
13898;DHT22;7019;50.766;4.474;2022-08-01T06:17:30;19.30;99.90
13898;DHT22;7019;50.766;4.474;2022-08-01T06:19:58;19.40;99.90
13898;DHT22;7019;50.766;4.474;2022-08-01T06:22:25;19.50;99.90
13898;DHT22;7019;50.766;4.474;2022-08-01T06:24:52;19.70;99.90
13898;DHT22;7019;50.766;4.474;2022-08-01T06:27:21;19.90;99.90
13898;DHT22;7019;50.766;4.474;2022-08-01T06:29:50;20.10;99.90
13898;DHT22;7019;50.766;4.474;2022-08-01T06:32:19;20.30;99.90
13898;DHT22;7019;50.766;4.474;2022-08-01T06:34:45;20.50;99.90
13898;DHT22;7019;50.766;4.474;2022-08-01T06:37:13;20.60;99.90
13898;DHT22;7019;50.766;4.474;2022-08-01T06:39:40;20.60;99.90
13898;DHT22;7019;50.766;4.474;2022-08-01T06:42:07;20.60;99.90
13898;DHT22;7019;50.766;4.474;2022-08-01T06:44:36;20.50;99.90
13898;DHT22;7019;50.766;4.474;2022-08-01T06:47:03;20.50;99.90
13898;DHT22;7019;50.766;4.474;2022-08-01T06:49:30;20.50;99.90
13898;DHT22;7019;50.766;4.474;2022-08-01T06:51:57;20.50;99.90
13898;DHT22;7019;50.766;4.474;2022-08-01T06:54:24;20.50;99.90
13898;DHT22;7019;50.766;4.474;2022-08-01T06:56:51;20.60;99.90
13898;DHT22;7019;50.766;4.474;2022-08-01T06:59:18;20.70;99.90
13898;DHT22;7019;50.766;4.474;2022-08-01T07:01:47;20.80;99.90
13898;DHT22;7019;50.766;4.474;2022-08-01T07:04:14;21.00;99.90
13898;DHT22;7019;50.766;4.474;2022-08-01T07:06:41;21.00;99.90
13898;DHT22;7019;50.766;4.474;2022-08-01T07:09:08;21.10;99.90
13898;DHT22;7019;50.766;4.474;2022-08-01T07:11:35;21.20;99.90
13898;DHT22;7019;50.766;4.474;2022-08-01T07:14:02;21.30;99.90
13898;DHT22;7019;50.766;4.474;2022-08-01T07:16:29;21.30;99.90
13898;DHT22;7019;50.766;4.474;2022-08-01T07:18:57;21.40;99.90
13898;DHT22;7019;50.766;4.474;2022-08-01T07:21:24;21.40;99.90
13898;DHT22;7019;50.766;4.474;2022-08-01T07:23:51;21.50;99.90
13898;DHT22;7019;50.766;4.474;2022-08-01T07:26:19;21.60;99.90
13898;DHT22;7019;50.766;4.474;2022-08-01T07:28:47;21.80;99.90
13898;DHT22;7019;50.766;4.474;2022-08-01T07:31:14;22.00;99.90
13898;DHT22;7019;50.766;4.474;2022-08-01T07:33:42;22.10;99.90
13898;DHT22;7019;50.766;4.474;2022-08-01T07:36:10;22.10;99.90
13898;DHT22;7019;50.766;4.474;2022-08-01T07:38:38;22.10;99.90
13898;DHT22;7019;50.766;4.474;2022-08-01T07:41:05;22.10;99.90
13898;DHT22;7019;50.766;4.474;2022-08-01T07:43:32;22.00;99.90
13898;DHT22;7019;50.766;4.474;2022-08-01T07:46:01;22.10;99.90
13898;DHT22;7019;50.766;4.474;2022-08-01T07:48:28;22.20;99.90
13898;DHT22;7019;50.766;4.474;2022-08-01T07:50:55;22.20;99.90
13898;DHT22;7019;50.766;4.474;2022-08-01T07:53:24;22.20;99.90
13898;DHT22;7019;50.766;4.474;2022-08-01T07:55:51;22.20;99.90
13898;DHT22;7019;50.766;4.474;2022-08-01T07:58:18;22.10;99.90
13898;DHT22;7019;50.766;4.474;2022-08-01T08:00:46;22.10;99.90
13898;DHT22;7019;50.766;4.474;2022-08-01T08:03:13;22.20;99.90
13898;DHT22;7019;50.766;4.474;2022-08-01T08:05:40;22.40;99.90
13898;DHT22;7019;50.766;4.474;2022-08-01T08:08:08;22.60;99.90
13898;DHT22;7019;50.766;4.474;2022-08-01T08:10:38;22.80;99.90
13898;DHT22;7019;50.766;4.474;2022-08-01T08:13:05;22.80;99.90
13898;DHT22;7019;50.766;4.474;2022-08-01T08:15:32;22.80;99.90
13898;DHT22;7019;50.766;4.474;2022-08-01T08:17:59;22.90;99.90
13898;DHT22;7019;50.766;4.474;2022-08-01T08:20:26;22.90;99.90
13898;DHT22;7019;50.766;4.474;2022-08-01T08:22:55;22.80;99.90
13898;DHT22;7019;50.766;4.474;2022-08-01T08:25:23;22.90;99.90
13898;DHT22;7019;50.766;4.474;2022-08-01T08:27:52;23.00;99.90
13898;DHT22;7019;50.766;4.474;2022-08-01T08:30:19;23.00;99.90
13898;DHT22;7019;50.766;4.474;2022-08-01T08:32:46;23.10;99.90
13898;DHT22;7019;50.766;4.474;2022-08-01T08:35:13;23.30;99.90
13898;DHT22;7019;50.766;4.474;2022-08-01T08:37:40;23.70;99.90
13898;DHT22;7019;50.766;4.474;2022-08-01T08:40:09;23.70;99.90
13898;DHT22;7019;50.766;4.474;2022-08-01T08:42:39;23.80;99.90
13898;DHT22;7019;50.766;4.474;2022-08-01T08:45:10;24.00;99.90
13898;DHT22;7019;50.766;4.474;2022-08-01T08:47:38;24.00;99.90
13898;DHT22;7019;50.766;4.474;2022-08-01T08:50:06;24.10;99.90
13898;DHT22;7019;50.766;4.474;2022-08-01T08:52:35;24.30;99.90
13898;DHT22;7019;50.766;4.474;2022-08-01T08:55:06;24.50;99.90
13898;DHT22;7019;50.766;4.474;2022-08-01T08:57:34;24.30;99.90
13898;DHT22;7019;50.766;4.474;2022-08-01T09:00:02;24.10;99.90
13898;DHT22;7019;50.766;4.474;2022-08-01T09:02:30;24.00;99.90
13898;DHT22;7019;50.766;4.474;2022-08-01T09:04:57;24.00;99.90
13898;DHT22;7019;50.766;4.474;2022-08-01T09:07:25;24.00;99.90
13898;DHT22;7019;50.766;4.474;2022-08-01T09:09:52;24.20;99.90
13898;DHT22;7019;50.766;4.474;2022-08-01T09:12:19;24.20;99.90
13898;DHT22;7019;50.766;4.474;2022-08-01T09:14:48;24.30;99.90
13898;DHT22;7019;50.766;4.474;2022-08-01T09:17:19;24.50;99.90
13898;DHT22;7019;50.766;4.474;2022-08-01T09:19:49;24.60;99.90
13898;DHT22;7019;50.766;4.474;2022-08-01T09:22:19;24.90;99.90
13898;DHT22;7019;50.766;4.474;2022-08-01T09:24:59;25.30;99.90
13898;DHT22;7019;50.766;4.474;2022-08-01T09:27:27;26.10;99.90
13898;DHT22;7019;50.766;4.474;2022-08-01T09:30:07;26.80;99.90
13898;DHT22;7019;50.766;4.474;2022-08-01T09:32:35;27.80;99.90
13898;DHT22;7019;50.766;4.474;2022-08-01T09:35:22;28.40;99.90
13898;DHT22;7019;50.766;4.474;2022-08-01T09:37:50;28.10;99.90
13898;DHT22;7019;50.766;4.474;2022-08-01T09:40:17;27.70;99.90
13898;DHT22;7019;50.766;4.474;2022-08-01T09:42:44;26.80;99.90
13898;DHT22;7019;50.766;4.474;2022-08-01T09:45:31;26.60;99.90
13898;DHT22;7019;50.766;4.474;2022-08-01T09:48:06;26.70;99.90
13898;DHT22;7019;50.766;4.474;2022-08-01T09:50:40;27.30;99.90
13898;DHT22;7019;50.766;4.474;2022-08-01T09:53:08;27.60;99.90
13898;DHT22;7019;50.766;4.474;2022-08-01T09:55:35;28.20;99.90
13898;DHT22;7019;50.766;4.474;2022-08-01T09:58:04;28.80;99.90
13898;DHT22;7019;50.766;4.474;2022-08-01T10:00:31;29.20;99.90
13898;DHT22;7019;50.766;4.474;2022-08-01T10:02:59;29.80;99.90
13898;DHT22;7019;50.766;4.474;2022-08-01T10:05:31;29.90;99.90
13898;DHT22;7019;50.766;4.474;2022-08-01T10:08:00;29.70;99.90
13898;DHT22;7019;50.766;4.474;2022-08-01T10:10:29;29.40;99.80
13898;DHT22;7019;50.766;4.474;2022-08-01T10:12:58;28.90;99.90
13898;DHT22;7019;50.766;4.474;2022-08-01T10:15:27;27.90;99.90
13898;DHT22;7019;50.766;4.474;2022-08-01T10:17:55;27.20;99.90
13898;DHT22;7019;50.766;4.474;2022-08-01T10:20:25;26.80;99.90
13898;DHT22;7019;50.766;4.474;2022-08-01T10:22:53;26.50;99.90
13898;DHT22;7019;50.766;4.474;2022-08-01T10:25:23;26.20;99.90
13898;DHT22;7019;50.766;4.474;2022-08-01T10:27:53;25.90;99.90
13898;DHT22;7019;50.766;4.474;2022-08-01T10:30:21;25.70;99.90
13898;DHT22;7019;50.766;4.474;2022-08-01T10:32:49;25.70;99.90
13898;DHT22;7019;50.766;4.474;2022-08-01T10:35:17;25.80;99.90
13898;DHT22;7019;50.766;4.474;2022-08-01T10:37:45;26.00;99.90
13898;DHT22;7019;50.766;4.474;2022-08-01T10:40:13;26.10;99.90
13898;DHT22;7019;50.766;4.474;2022-08-01T10:42:43;26.20;99.90
13898;DHT22;7019;50.766;4.474;2022-08-01T10:45:13;26.40;99.90
13898;DHT22;7019;50.766;4.474;2022-08-01T10:47:45;26.70;99.90
13898;DHT22;7019;50.766;4.474;2022-08-01T10:50:19;27.10;99.90
13898;DHT22;7019;50.766;4.474;2022-08-01T10:53:07;27.60;99.90
13898;DHT22;7019;50.766;4.474;2022-08-01T10:55:46;28.00;99.90
13898;DHT22;7019;50.766;4.474;2022-08-01T10:58:20;28.00;99.90
13898;DHT22;7019;50.766;4.474;2022-08-01T11:00:47;27.80;99.90
13898;DHT22;7019;50.766;4.474;2022-08-01T11:03:15;27.90;99.90
13898;DHT22;7019;50.766;4.474;2022-08-01T11:05:43;28.10;99.90
13898;DHT22;7019;50.766;4.474;2022-08-01T11:08:21;28.40;99.90
13898;DHT22;7019;50.766;4.474;2022-08-01T11:10:48;28.40;99.90
13898;DHT22;7019;50.766;4.474;2022-08-01T11:16:29;28.80;99.90
13898;DHT22;7019;50.766;4.474;2022-08-01T11:18:56;28.70;99.90
13898;DHT22;7019;50.766;4.474;2022-08-01T11:21:58;28.30;99.90
13898;DHT22;7019;50.766;4.474;2022-08-01T11:24:56;28.40;99.90
13898;DHT22;7019;50.766;4.474;2022-08-01T11:27:28;28.60;99.90
13898;DHT22;7019;50.766;4.474;2022-08-01T11:33:00;28.60;99.90
13898;DHT22;7019;50.766;4.474;2022-08-01T11:35:28;28.80;99.90
13898;DHT22;7019;50.766;4.474;2022-08-01T11:37:55;29.10;99.90
13898;DHT22;7019;50.766;4.474;2022-08-01T11:40:23;29.10;99.90
13898;DHT22;7019;50.766;4.474;2022-08-01T11:43:17;29.10;99.90
13898;DHT22;7019;50.766;4.474;2022-08-01T11:45:48;29.10;99.90
13898;DHT22;7019;50.766;4.474;2022-08-01T11:48:20;29.00;99.90
13898;DHT22;7019;50.766;4.474;2022-08-01T11:50:48;29.30;99.90
13898;DHT22;7019;50.766;4.474;2022-08-01T11:53:16;29.40;99.90
13898;DHT22;7019;50.766;4.474;2022-08-01T11:55:46;29.60;99.90
13898;DHT22;7019;50.766;4.474;2022-08-01T11:58:16;29.40;98.90
13898;DHT22;7019;50.766;4.474;2022-08-01T12:00:50;29.50;97.80
13898;DHT22;7019;50.766;4.474;2022-08-01T12:03:25;29.40;98.80
13898;DHT22;7019;50.766;4.474;2022-08-01T12:05:53;29.60;99.80
13898;DHT22;7019;50.766;4.474;2022-08-01T12:08:27;28.60;98.80
13898;DHT22;7019;50.766;4.474;2022-08-01T12:10:55;28.80;99.90
13898;DHT22;7019;50.766;4.474;2022-08-01T12:13:22;28.80;98.20
13898;DHT22;7019;50.766;4.474;2022-08-01T12:15:49;28.50;99.50
13898;DHT22;7019;50.766;4.474;2022-08-01T12:18:16;28.30;99.60
13898;DHT22;7019;50.766;4.474;2022-08-01T12:20:46;28.30;99.50
13898;DHT22;7019;50.766;4.474;2022-08-01T12:23:15;27.90;98.80
13898;DHT22;7019;50.766;4.474;2022-08-01T12:25:42;27.80;99.70
13898;DHT22;7019;50.766;4.474;2022-08-01T12:28:11;27.90;99.40
13898;DHT22;7019;50.766;4.474;2022-08-01T12:30:40;28.00;99.90
13898;DHT22;7019;50.766;4.474;2022-08-01T12:33:08;28.00;99.90
13898;DHT22;7019;50.766;4.474;2022-08-01T12:35:37;28.00;99.10
13898;DHT22;7019;50.766;4.474;2022-08-01T12:38:07;28.30;99.40
13898;DHT22;7019;50.766;4.474;2022-08-01T12:40:41;28.90;98.30
13898;DHT22;7019;50.766;4.474;2022-08-01T12:43:09;29.20;96.50
13898;DHT22;7019;50.766;4.474;2022-08-01T12:45:37;28.60;96.60
13898;DHT22;7019;50.766;4.474;2022-08-01T12:48:08;28.30;96.50
13898;DHT22;7019;50.766;4.474;2022-08-01T12:50:38;28.10;97.60
13898;DHT22;7019;50.766;4.474;2022-08-01T12:53:08;28.20;97.10
13898;DHT22;7019;50.766;4.474;2022-08-01T12:55:44;28.40;97.30
13898;DHT22;7019;50.766;4.474;2022-08-01T12:58:13;28.20;97.00
13898;DHT22;7019;50.766;4.474;2022-08-01T13:00:41;28.30;98.40
13898;DHT22;7019;50.766;4.474;2022-08-01T13:03:11;28.10;97.30
13898;DHT22;7019;50.766;4.474;2022-08-01T13:05:44;27.90;98.10
13898;DHT22;7019;50.766;4.474;2022-08-01T13:08:14;28.10;98.20
13898;DHT22;7019;50.766;4.474;2022-08-01T13:10:42;28.10;98.30
13898;DHT22;7019;50.766;4.474;2022-08-01T13:13:10;28.20;98.70
13898;DHT22;7019;50.766;4.474;2022-08-01T13:15:38;28.50;98.70
13898;DHT22;7019;50.766;4.474;2022-08-01T13:18:22;29.00;97.50
13898;DHT22;7019;50.766;4.474;2022-08-01T13:20:49;29.40;97.60
13898;DHT22;7019;50.766;4.474;2022-08-01T13:23:19;29.20;97.30
13898;DHT22;7019;50.766;4.474;2022-08-01T13:25:51;29.10;98.00
13898;DHT22;7019;50.766;4.474;2022-08-01T13:28:20;29.30;97.70
13898;DHT22;7019;50.766;4.474;2022-08-01T13:30:55;29.30;97.20
13898;DHT22;7019;50.766;4.474;2022-08-01T13:33:23;28.90;95.20
13898;DHT22;7019;50.766;4.474;2022-08-01T13:35:52;28.60;96.70
13898;DHT22;7019;50.766;4.474;2022-08-01T13:38:20;28.30;97.30
13898;DHT22;7019;50.766;4.474;2022-08-01T13:41:08;27.90;96.90
13898;DHT22;7019;50.766;4.474;2022-08-01T13:43:35;27.70;97.50
13898;DHT22;7019;50.766;4.474;2022-08-01T13:46:03;27.40;97.70
13898;DHT22;7019;50.766;4.474;2022-08-01T13:48:31;27.20;97.90
13898;DHT22;7019;50.766;4.474;2022-08-01T13:50:58;27.10;97.90
13898;DHT22;7019;50.766;4.474;2022-08-01T13:53:27;27.00;98.70
13898;DHT22;7019;50.766;4.474;2022-08-01T13:55:55;27.10;99.00
13898;DHT22;7019;50.766;4.474;2022-08-01T13:58:22;27.10;99.20
13898;DHT22;7019;50.766;4.474;2022-08-01T14:00:49;27.20;98.30
13898;DHT22;7019;50.766;4.474;2022-08-01T14:03:16;27.20;98.40
13898;DHT22;7019;50.766;4.474;2022-08-01T14:05:43;27.20;98.10
13898;DHT22;7019;50.766;4.474;2022-08-01T14:08:10;27.10;98.60
13898;DHT22;7019;50.766;4.474;2022-08-01T14:10:39;27.10;98.10
13898;DHT22;7019;50.766;4.474;2022-08-01T14:13:06;26.90;97.70
13898;DHT22;7019;50.766;4.474;2022-08-01T14:15:33;27.10;98.50
13898;DHT22;7019;50.766;4.474;2022-08-01T14:18:00;27.40;97.60
13898;DHT22;7019;50.766;4.474;2022-08-01T14:20:27;27.40;97.40
13898;DHT22;7019;50.766;4.474;2022-08-01T14:22:54;27.30;97.30
13898;DHT22;7019;50.766;4.474;2022-08-01T14:25:21;27.30;97.20
13898;DHT22;7019;50.766;4.474;2022-08-01T14:27:50;27.10;96.90
13898;DHT22;7019;50.766;4.474;2022-08-01T14:30:17;27.10;98.30
13898;DHT22;7019;50.766;4.474;2022-08-01T14:32:45;26.90;98.10
13898;DHT22;7019;50.766;4.474;2022-08-01T14:35:12;26.70;98.20
13898;DHT22;7019;50.766;4.474;2022-08-01T14:37:39;26.60;97.90
13898;DHT22;7019;50.766;4.474;2022-08-01T14:40:07;26.70;96.70
13898;DHT22;7019;50.766;4.474;2022-08-01T14:42:35;26.90;97.00
13898;DHT22;7019;50.766;4.474;2022-08-01T14:45:05;27.10;98.60
13898;DHT22;7019;50.766;4.474;2022-08-01T14:47:35;27.10;97.10
13898;DHT22;7019;50.766;4.474;2022-08-01T14:50:04;27.20;96.40
13898;DHT22;7019;50.766;4.474;2022-08-01T14:52:31;27.50;96.70
13898;DHT22;7019;50.766;4.474;2022-08-01T14:54:59;27.90;96.00
13898;DHT22;7019;50.766;4.474;2022-08-01T14:57:26;27.90;95.80
13898;DHT22;7019;50.766;4.474;2022-08-01T14:59:53;28.10;96.10
13898;DHT22;7019;50.766;4.474;2022-08-01T15:02:22;28.30;95.30
13898;DHT22;7019;50.766;4.474;2022-08-01T15:04:49;28.70;96.70
13898;DHT22;7019;50.766;4.474;2022-08-01T15:07:17;28.80;94.50
13898;DHT22;7019;50.766;4.474;2022-08-01T15:09:45;28.50;94.40
13898;DHT22;7019;50.766;4.474;2022-08-01T15:12:12;28.00;95.20
13898;DHT22;7019;50.766;4.474;2022-08-01T15:14:39;27.70;95.80
13898;DHT22;7019;50.766;4.474;2022-08-01T15:17:17;27.30;95.40
13898;DHT22;7019;50.766;4.474;2022-08-01T15:19:47;27.00;96.30
13898;DHT22;7019;50.766;4.474;2022-08-01T15:22:15;26.80;97.20
13898;DHT22;7019;50.766;4.474;2022-08-01T15:24:42;26.70;97.30
13898;DHT22;7019;50.766;4.474;2022-08-01T15:27:09;26.80;97.70
13898;DHT22;7019;50.766;4.474;2022-08-01T15:29:37;26.80;97.60
13898;DHT22;7019;50.766;4.474;2022-08-01T15:32:06;26.80;97.30
13898;DHT22;7019;50.766;4.474;2022-08-01T15:34:34;26.90;97.20
13898;DHT22;7019;50.766;4.474;2022-08-01T15:37:04;27.10;98.60
13898;DHT22;7019;50.766;4.474;2022-08-01T15:39:32;27.40;97.00
13898;DHT22;7019;50.766;4.474;2022-08-01T15:42:01;27.50;96.10
13898;DHT22;7019;50.766;4.474;2022-08-01T15:44:29;27.40;98.10
13898;DHT22;7019;50.766;4.474;2022-08-01T15:46:56;27.30;96.80
13898;DHT22;7019;50.766;4.474;2022-08-01T15:49:23;27.20;97.90
13898;DHT22;7019;50.766;4.474;2022-08-01T15:51:50;27.10;97.70
13898;DHT22;7019;50.766;4.474;2022-08-01T15:54:18;27.00;96.70
13898;DHT22;7019;50.766;4.474;2022-08-01T15:56:46;26.80;97.00
13898;DHT22;7019;50.766;4.474;2022-08-01T15:59:13;26.50;96.40
13898;DHT22;7019;50.766;4.474;2022-08-01T16:01:40;26.40;97.10
13898;DHT22;7019;50.766;4.474;2022-08-01T16:04:07;26.20;98.00